createdAt,value
2018-03-14T00:00:48.248Z,4.97
2018-03-14T00:03:15.648Z,4.05
2018-03-14T00:05:43.052Z,7.72
2018-03-14T00:08:10.476Z,8.25
2018-03-14T00:10:37.996Z,6.05
2018-03-14T00:13:06.210Z,5.53
2018-03-14T00:15:33.600Z,4.00
2018-03-14T00:18:01.009Z,6.95
2018-03-14T00:20:28.407Z,4.30
2018-03-14T00:22:55.808Z,7.15
2018-03-14T00:27:44.281Z,7.15
2018-03-14T00:30:11.789Z,7.22
2018-03-14T00:32:39.185Z,7.65
2018-03-14T00:35:06.596Z,5.05
2018-03-14T00:37:34.640Z,11.02
2018-03-14T00:40:02.032Z,5.72
2018-03-14T00:42:29.467Z,4.68
2018-03-14T00:44:56.864Z,7.22
2018-03-14T00:47:24.260Z,4.45
2018-03-14T00:49:52.384Z,4.87
2018-03-14T00:52:19.806Z,5.65
2018-03-14T00:54:47.214Z,7.07
2018-03-14T00:57:14.607Z,5.87
2018-03-14T00:59:42.018Z,7.15
2018-03-14T01:02:09.441Z,7.60
2018-03-14T01:04:36.863Z,7.50
2018-03-14T01:07:04.272Z,9.02
2018-03-14T01:09:31.687Z,6.07
2018-03-14T01:11:59.089Z,6.28
2018-03-14T01:14:26.488Z,5.35
2018-03-14T01:16:53.887Z,8.30
2018-03-14T01:19:21.325Z,6.72
2018-03-14T01:21:48.831Z,3.80
2018-03-14T01:24:16.308Z,5.35
2018-03-14T01:26:43.705Z,5.07
2018-03-14T01:29:11.156Z,4.60
2018-03-14T01:31:38.575Z,7.80
2018-03-14T01:34:05.999Z,5.30
2018-03-14T01:36:33.414Z,4.90
2018-03-14T01:39:01.299Z,4.50
2018-03-14T01:41:28.722Z,5.00
2018-03-14T01:43:56.131Z,9.32
2018-03-14T01:46:23.708Z,8.57
2018-03-14T01:48:51.099Z,7.43
2018-03-14T01:51:18.751Z,5.00
2018-03-14T01:53:46.190Z,8.38
2018-03-14T01:56:13.603Z,8.65
2018-03-14T01:58:41.027Z,6.68
2018-03-14T02:01:08.484Z,8.13
2018-03-14T02:03:35.917Z,8.57
2018-03-14T02:06:03.339Z,5.93
2018-03-14T02:08:30.905Z,8.65
2018-03-14T02:10:58.415Z,6.37
2018-03-14T02:13:25.845Z,7.15
2018-03-14T02:15:54.052Z,7.40
2018-03-14T02:18:21.518Z,11.07
2018-03-14T02:20:48.950Z,5.47
2018-03-14T02:23:16.350Z,10.88
2018-03-14T02:25:44.688Z,5.20
2018-03-14T02:28:12.188Z,8.55
2018-03-14T02:30:39.628Z,5.18
2018-03-14T02:33:07.098Z,7.37
2018-03-14T02:35:34.532Z,6.45
2018-03-14T02:38:01.979Z,7.82
2018-03-14T02:40:29.838Z,7.65
2018-03-14T02:42:57.244Z,6.70
2018-03-14T02:45:25.618Z,6.28
2018-03-14T02:47:53.037Z,7.60
2018-03-14T02:50:20.650Z,16.75
2018-03-14T02:52:48.130Z,11.80
2018-03-14T02:55:15.703Z,6.10
2018-03-14T02:57:43.153Z,9.63
2018-03-14T03:00:10.600Z,6.72
2018-03-14T03:02:38.016Z,7.43
2018-03-14T03:05:05.478Z,8.80
2018-03-14T03:07:32.927Z,7.40
2018-03-14T03:10:00.357Z,10.57
2018-03-14T03:12:28.819Z,9.43
2018-03-14T03:14:56.324Z,5.65
2018-03-14T03:17:23.793Z,11.30
2018-03-14T03:19:51.345Z,8.82
2018-03-14T03:22:18.769Z,16.52
2018-03-14T03:24:46.201Z,6.80
2018-03-14T03:27:13.656Z,8.05
2018-03-14T03:29:41.073Z,9.00
2018-03-14T03:32:08.513Z,7.47
2018-03-14T03:34:35.942Z,6.70
2018-03-14T03:37:03.366Z,7.70
2018-03-14T03:39:30.754Z,7.18
2018-03-14T03:41:58.207Z,9.35
2018-03-14T03:44:25.678Z,7.32
2018-03-14T03:46:53.106Z,8.38
2018-03-14T03:49:20.576Z,11.57
2018-03-14T03:51:48.001Z,7.37
2018-03-14T03:54:15.569Z,9.95
2018-03-14T03:56:43.030Z,6.62
2018-03-14T03:59:10.501Z,6.72
2018-03-14T04:01:37.986Z,8.68
2018-03-14T04:04:05.422Z,6.25
2018-03-14T04:06:32.947Z,11.68
2018-03-14T04:09:00.649Z,6.40
2018-03-14T04:11:28.072Z,6.80
2018-03-14T04:13:56.128Z,5.43
2018-03-14T04:16:23.586Z,6.43
2018-03-14T04:18:50.971Z,5.53
2018-03-14T04:21:18.532Z,5.10
2018-03-14T04:23:45.990Z,5.72
2018-03-14T04:26:13.413Z,4.57
2018-03-14T04:28:40.950Z,5.97
2018-03-14T04:31:08.364Z,4.80
2018-03-14T04:33:35.803Z,5.60
2018-03-14T04:36:03.238Z,3.92
2018-03-14T04:38:30.668Z,6.53
2018-03-14T04:40:58.125Z,6.12
2018-03-14T04:43:25.721Z,4.22
2018-03-14T04:45:53.148Z,6.70
2018-03-14T04:48:20.565Z,7.07
2018-03-14T04:50:47.995Z,9.52
2018-03-14T04:53:15.422Z,7.40
2018-03-14T04:55:42.845Z,6.07
2018-03-14T04:58:11.145Z,7.90
2018-03-14T05:00:38.577Z,6.15
2018-03-14T05:03:06.063Z,6.60
2018-03-14T05:05:33.496Z,7.32
2018-03-14T05:08:00.902Z,9.50
2018-03-14T05:10:28.328Z,5.65
2018-03-14T05:12:55.763Z,8.85
2018-03-14T05:15:23.434Z,7.82
2018-03-14T05:17:50.865Z,4.82
2018-03-14T05:20:18.260Z,8.95
2018-03-14T05:22:46.491Z,6.80
2018-03-14T05:25:13.922Z,7.57
2018-03-14T05:27:41.346Z,5.78
2018-03-14T05:30:08.804Z,8.15
2018-03-14T05:32:36.252Z,5.22
2018-03-14T05:35:03.709Z,6.30
2018-03-14T05:37:31.249Z,6.87
2018-03-14T05:39:58.715Z,7.97
2018-03-14T05:42:26.192Z,4.57
2018-03-14T05:44:53.617Z,5.37
2018-03-14T05:47:21.017Z,6.43
2018-03-14T05:49:48.685Z,5.25
2018-03-14T05:52:16.111Z,6.82
2018-03-14T05:54:43.530Z,5.22
2018-03-14T05:57:11.007Z,12.82
2018-03-14T05:59:39.137Z,5.45
2018-03-14T06:02:06.561Z,5.50
2018-03-14T06:04:34.758Z,7.47
2018-03-14T06:07:02.204Z,6.30
2018-03-14T06:09:29.632Z,6.28
2018-03-14T06:11:57.981Z,10.32
2018-03-14T06:14:25.442Z,7.70
2018-03-14T06:16:52.935Z,8.98
2018-03-14T06:19:20.912Z,6.32
2018-03-14T06:21:48.310Z,15.07
2018-03-14T06:24:15.770Z,9.18
2018-03-14T06:26:43.238Z,7.43
2018-03-14T06:29:10.669Z,12.50
2018-03-14T06:31:38.106Z,12.65
2018-03-14T06:34:05.537Z,10.13
2018-03-14T06:36:33.018Z,11.35
2018-03-14T06:39:00.441Z,14.65
2018-03-14T06:41:27.918Z,12.60
2018-03-14T06:43:55.437Z,10.68
2018-03-14T06:46:22.926Z,8.65
2018-03-14T06:48:50.792Z,12.02
2018-03-14T06:51:18.231Z,19.73
2018-03-14T06:53:45.801Z,16.27
2018-03-14T06:56:13.280Z,15.63
2018-03-14T06:58:52.454Z,15.20
2018-03-14T07:01:32.661Z,14.55
2018-03-14T07:04:12.018Z,13.38
2018-03-14T07:06:39.437Z,15.10
2018-03-14T07:09:06.873Z,13.32
2018-03-14T07:11:34.390Z,17.40
2018-03-14T07:14:01.829Z,24.27
2018-03-14T07:16:29.291Z,15.70
2018-03-14T07:18:56.770Z,17.05
2018-03-14T07:21:24.785Z,17.87
2018-03-14T07:23:52.244Z,13.52
2018-03-14T07:26:19.636Z,18.75
2018-03-14T07:28:47.105Z,15.65
2018-03-14T07:31:14.551Z,16.50
2018-03-14T07:33:42.014Z,15.25
2018-03-14T07:36:09.474Z,18.58
2018-03-14T07:38:36.911Z,13.57
2018-03-14T07:41:04.487Z,16.05
2018-03-14T07:43:31.946Z,18.30
2018-03-14T07:45:59.396Z,16.33
2018-03-14T07:48:26.858Z,16.35
2018-03-14T07:50:54.334Z,16.77
2018-03-14T07:53:21.810Z,21.25
2018-03-14T07:55:49.246Z,19.05
2018-03-14T07:58:16.697Z,18.02
2018-03-14T08:00:44.247Z,23.65
2018-03-14T08:03:11.761Z,20.12
2018-03-14T08:05:39.247Z,15.15
2018-03-14T08:08:06.690Z,18.17
2018-03-14T08:10:34.082Z,19.92
2018-03-14T08:13:01.979Z,16.37
2018-03-14T08:15:29.468Z,21.48
2018-03-14T08:17:56.905Z,22.73
2018-03-14T08:20:24.342Z,21.65
2018-03-14T08:22:51.805Z,17.55
2018-03-14T08:25:19.230Z,17.52
2018-03-14T08:27:46.820Z,15.85
2018-03-14T08:30:14.283Z,20.08
2018-03-14T08:32:41.729Z,19.02
2018-03-14T08:35:09.315Z,21.35
2018-03-14T08:37:36.811Z,24.98
2018-03-14T08:40:04.426Z,19.95
2018-03-14T08:42:31.936Z,17.83
2018-03-14T08:44:59.353Z,16.65
2018-03-14T08:47:26.793Z,21.17
2018-03-14T08:49:54.485Z,17.08
2018-03-14T08:52:21.922Z,21.75
2018-03-14T08:54:49.451Z,19.92
2018-03-14T08:57:17.029Z,18.00
2018-03-14T08:59:44.476Z,22.90
2018-03-14T09:02:12.240Z,20.02
2018-03-14T09:04:39.732Z,20.85
2018-03-14T09:07:07.193Z,16.60
2018-03-14T09:09:34.649Z,19.17
2018-03-14T09:12:02.102Z,19.48
2018-03-14T09:14:29.568Z,16.23
2018-03-14T09:16:57.019Z,17.20
2018-03-14T09:19:24.725Z,15.25
2018-03-14T09:21:52.197Z,12.95
2018-03-14T09:24:19.653Z,17.55
2018-03-14T09:26:48.752Z,17.90
2018-03-14T09:29:16.270Z,18.48
2018-03-14T09:31:43.900Z,13.18
2018-03-14T09:34:11.437Z,17.02
2018-03-14T09:36:38.865Z,15.55
2018-03-14T09:39:06.289Z,20.85
2018-03-14T09:41:33.733Z,14.95
2018-03-14T09:44:01.199Z,15.02
2018-03-14T09:46:28.603Z,17.37
2018-03-14T09:48:56.090Z,18.80
2018-03-14T09:51:23.618Z,18.42
2018-03-14T09:53:51.367Z,17.60
2018-03-14T09:56:18.892Z,18.00
2018-03-14T09:58:46.287Z,14.30
2018-03-14T10:01:13.734Z,15.23
2018-03-14T10:03:41.338Z,15.65
2018-03-14T10:06:08.802Z,18.35
2018-03-14T10:08:36.245Z,16.55
2018-03-14T10:11:03.745Z,18.55
2018-03-14T10:13:31.178Z,12.48
2018-03-14T10:15:58.687Z,17.80
2018-03-14T10:18:26.133Z,13.43
2018-03-14T10:20:53.520Z,12.68
2018-03-14T10:23:20.953Z,11.00
2018-03-14T10:25:48.476Z,13.90
2018-03-14T10:28:15.788Z,7.60
2018-03-14T10:30:43.223Z,9.85
2018-03-14T10:33:10.665Z,7.65
2018-03-14T10:35:38.279Z,9.88
2018-03-14T10:38:05.731Z,6.80
2018-03-14T10:40:33.128Z,6.82
2018-03-14T10:43:00.755Z,6.80
2018-03-14T10:45:28.265Z,8.40
2018-03-14T10:47:55.921Z,4.87
2018-03-14T10:50:23.409Z,6.78
2018-03-14T10:52:51.759Z,6.25
2018-03-14T10:55:19.212Z,9.32
2018-03-14T10:57:46.664Z,5.65
2018-03-14T11:00:19.610Z,6.43
2018-03-14T11:02:53.109Z,6.55
2018-03-14T11:05:20.562Z,6.12
2018-03-14T11:07:48.168Z,4.20
2018-03-14T11:10:15.571Z,9.35
2018-03-14T11:12:43.056Z,5.70
2018-03-14T11:15:10.808Z,5.87
2018-03-14T11:17:38.252Z,5.37
2018-03-14T11:20:05.795Z,5.03
2018-03-14T11:22:33.411Z,5.50
2018-03-14T11:25:00.817Z,7.00
2018-03-14T11:27:28.250Z,5.55
2018-03-14T11:29:55.648Z,5.30
2018-03-14T11:32:23.152Z,7.40
2018-03-14T11:34:50.631Z,6.85
2018-03-14T11:37:18.066Z,4.70
2018-03-14T11:39:46.096Z,4.60
2018-03-14T11:42:13.574Z,7.03
2018-03-14T11:44:41.022Z,3.30
2018-03-14T11:47:08.436Z,7.28
2018-03-14T11:49:35.910Z,7.18
2018-03-14T11:52:03.380Z,12.60
2018-03-14T11:54:31.474Z,5.20
2018-03-14T11:56:58.915Z,4.05
2018-03-14T11:59:26.387Z,4.85
2018-03-14T12:01:53.897Z,3.78
2018-03-14T12:04:21.590Z,4.00
2018-03-14T12:06:49.315Z,4.20
2018-03-14T12:09:16.809Z,2.80
2018-03-14T12:11:44.243Z,5.22
2018-03-14T12:14:11.696Z,3.85
2018-03-14T12:16:39.162Z,4.62
2018-03-14T12:19:06.568Z,5.28
2018-03-14T12:21:35.041Z,2.92
2018-03-14T12:24:02.525Z,4.22
2018-03-14T12:26:31.070Z,4.60
2018-03-14T12:28:58.486Z,3.10
2018-03-14T12:31:25.945Z,3.92
2018-03-14T12:33:53.378Z,8.02
2018-03-14T12:36:20.835Z,3.35
2018-03-14T12:38:48.296Z,4.03
2018-03-14T12:41:15.729Z,5.75
2018-03-14T12:43:43.169Z,4.60
2018-03-14T12:46:10.656Z,4.65
2018-03-14T12:48:38.088Z,2.58
2018-03-14T12:51:05.597Z,5.35
2018-03-14T12:53:33.090Z,3.25
2018-03-14T12:56:00.528Z,6.47
2018-03-14T12:58:28.052Z,3.72
2018-03-14T13:00:55.541Z,6.10
2018-03-14T13:03:23.016Z,2.90
2018-03-14T13:05:50.672Z,6.80
2018-03-14T13:08:18.212Z,5.28
2018-03-14T13:10:45.697Z,3.15
2018-03-14T13:13:13.108Z,4.00
2018-03-14T13:15:40.628Z,4.55
2018-03-14T13:18:08.276Z,3.45
2018-03-14T13:20:35.726Z,3.50
2018-03-14T13:23:03.273Z,4.57
2018-03-14T13:25:30.695Z,3.47
2018-03-14T13:27:58.228Z,5.00
2018-03-14T13:30:25.840Z,2.58
2018-03-14T13:32:53.462Z,2.15
2018-03-14T13:35:21.021Z,6.03
2018-03-14T13:37:48.514Z,1.77
2018-03-14T13:40:16.037Z,4.20
2018-03-14T13:42:43.532Z,2.00
2018-03-14T13:45:10.994Z,6.15
2018-03-14T13:47:38.453Z,2.75
2018-03-14T13:50:05.887Z,2.50
2018-03-14T13:52:33.855Z,2.00
2018-03-14T13:55:01.299Z,2.28
2018-03-14T13:57:28.789Z,3.08
2018-03-14T13:59:56.491Z,2.25
2018-03-14T14:02:24.259Z,2.40
2018-03-14T14:04:51.875Z,2.78
2018-03-14T14:09:53.043Z,3.00
2018-03-14T14:12:20.500Z,3.47
2018-03-14T14:14:48.059Z,7.62
2018-03-14T14:17:15.561Z,5.95
2018-03-14T14:19:43.083Z,6.15
2018-03-14T14:22:10.792Z,5.62
2018-03-14T14:24:38.296Z,4.35
2018-03-14T14:27:06.040Z,3.87
2018-03-14T14:29:33.507Z,7.55
2018-03-14T14:32:00.948Z,3.03
2018-03-14T14:34:28.364Z,4.90
2018-03-14T14:36:56.263Z,2.40
2018-03-14T14:39:23.723Z,3.25
2018-03-14T14:41:51.199Z,3.92
2018-03-14T14:44:18.674Z,4.62
2018-03-14T14:46:46.163Z,4.68
2018-03-14T14:49:13.583Z,1.73
2018-03-14T14:51:41.066Z,3.25
2018-03-14T14:54:08.618Z,4.43
2018-03-14T14:56:36.022Z,5.03
2018-03-14T14:59:03.478Z,3.22
2018-03-14T15:01:31.142Z,5.90
2018-03-14T15:03:58.639Z,3.80
2018-03-14T15:06:26.116Z,3.92
2018-03-14T15:08:54.085Z,3.28
2018-03-14T15:11:21.844Z,3.62
2018-03-14T15:13:49.305Z,9.57
2018-03-14T15:16:16.807Z,2.37
2018-03-14T15:18:44.377Z,3.10
2018-03-14T15:21:11.899Z,3.15
2018-03-14T15:23:39.335Z,4.80
2018-03-14T15:26:06.884Z,2.47
2018-03-14T15:28:34.304Z,3.92
2018-03-14T15:31:01.781Z,3.72
2018-03-14T15:33:29.217Z,2.62
2018-03-14T15:35:56.784Z,1.98
2018-03-14T15:38:24.375Z,4.95
2018-03-14T15:40:51.914Z,2.45
2018-03-14T15:43:19.386Z,4.40
2018-03-14T15:45:46.886Z,2.45
2018-03-14T15:48:14.318Z,4.90
2018-03-14T15:50:41.727Z,2.42
2018-03-14T15:53:09.189Z,1.90
2018-03-14T15:55:36.607Z,2.83
2018-03-14T15:58:04.216Z,3.03
2018-03-14T16:00:31.624Z,2.22
2018-03-14T16:02:59.085Z,2.50
2018-03-14T16:05:26.557Z,4.03
2018-03-14T16:07:53.988Z,2.62
2018-03-14T16:10:21.839Z,7.57
2018-03-14T16:12:49.329Z,2.87
2018-03-14T16:15:16.793Z,4.15
2018-03-14T16:17:44.258Z,2.55
2018-03-14T16:20:11.802Z,5.65
2018-03-14T16:22:39.246Z,2.85
2018-03-14T16:25:06.733Z,4.40
2018-03-14T16:27:34.355Z,3.10
2018-03-14T16:30:01.846Z,4.53
2018-03-14T16:32:29.436Z,2.60
2018-03-14T16:34:57.014Z,5.65
2018-03-14T16:37:24.471Z,4.80
2018-03-14T16:39:51.868Z,2.10
2018-03-14T16:42:20.539Z,2.50
2018-03-14T16:44:48.487Z,3.20
2018-03-14T16:47:15.928Z,7.87
2018-03-14T16:49:43.454Z,3.85
2018-03-14T16:52:11.204Z,2.83
2018-03-14T16:54:38.649Z,4.72
2018-03-14T16:57:06.469Z,3.00
2018-03-14T16:59:34.331Z,4.68
2018-03-14T17:02:01.965Z,2.50
2018-03-14T17:04:29.463Z,2.33
2018-03-14T17:06:56.868Z,1.95
2018-03-14T17:09:24.807Z,3.53
2018-03-14T17:11:52.221Z,3.65
2018-03-14T17:14:27.135Z,2.67
2018-03-14T17:16:47.113Z,3.53
2018-03-14T17:19:14.594Z,3.72
2018-03-14T17:21:42.004Z,2.20
2018-03-14T17:24:09.442Z,2.40
2018-03-14T17:26:37.025Z,3.47
2018-03-14T17:29:04.460Z,5.47
2018-03-14T17:31:31.898Z,2.67
2018-03-14T17:33:59.286Z,3.20
2018-03-14T17:36:26.850Z,4.45
2018-03-14T17:38:54.357Z,1.75
2018-03-14T17:41:21.838Z,2.75
2018-03-14T17:43:49.346Z,6.65
2018-03-14T17:46:16.808Z,5.40
2018-03-14T17:48:44.303Z,5.53
2018-03-14T17:51:11.791Z,6.05
2018-03-14T17:53:39.238Z,5.40
2018-03-14T17:56:07.249Z,3.83
2018-03-14T17:58:34.689Z,8.93
2018-03-14T18:01:02.328Z,8.00
2018-03-14T18:03:29.762Z,2.92
2018-03-14T18:05:57.228Z,7.20
2018-03-14T18:08:24.682Z,5.00
2018-03-14T18:10:52.175Z,5.22
2018-03-14T18:13:19.795Z,4.43
2018-03-14T18:18:21.678Z,2.83
2018-03-14T18:20:49.371Z,4.12
2018-03-14T18:23:16.904Z,5.57
2018-03-14T18:25:44.541Z,5.07
2018-03-14T18:28:11.989Z,5.78
2018-03-14T18:30:40.229Z,3.80
2018-03-14T18:33:07.703Z,4.57
2018-03-14T18:35:35.233Z,8.77
2018-03-14T18:38:03.163Z,3.47
2018-03-14T18:40:31.492Z,9.82
2018-03-14T18:42:58.888Z,4.00
2018-03-14T18:45:26.349Z,6.68
2018-03-14T18:47:54.434Z,3.53
2018-03-14T18:50:21.858Z,5.68
2018-03-14T18:52:49.245Z,5.03
2018-03-14T18:55:16.784Z,6.07
2018-03-14T18:57:44.383Z,9.90
2018-03-14T19:00:12.094Z,5.53
2018-03-14T19:02:40.421Z,7.50
2018-03-14T19:05:07.943Z,9.52
2018-03-14T19:07:35.393Z,7.18
2018-03-14T19:10:02.885Z,6.93
2018-03-14T19:12:30.321Z,6.55
2018-03-14T19:14:57.871Z,10.25
2018-03-14T19:17:25.334Z,6.43
2018-03-14T19:19:52.823Z,3.17
2018-03-14T19:22:20.280Z,3.85
2018-03-14T19:24:47.788Z,6.47
2018-03-14T19:27:15.374Z,3.42
2018-03-14T19:29:43.014Z,3.85
2018-03-14T19:32:10.889Z,5.40
2018-03-14T19:34:38.381Z,7.00
2018-03-14T19:37:05.806Z,6.45
2018-03-14T19:39:33.287Z,14.90
2018-03-14T19:42:00.732Z,8.13
2018-03-14T19:44:28.262Z,10.55
2018-03-14T19:46:55.776Z,6.47
2018-03-14T19:49:23.283Z,4.35
2018-03-14T19:51:50.668Z,6.53
2018-03-14T19:54:18.301Z,10.27
2018-03-14T19:56:45.812Z,12.13
2018-03-14T19:59:13.489Z,5.57
2018-03-14T20:01:41.599Z,7.10
2018-03-14T20:04:09.216Z,5.87
2018-03-14T20:06:37.207Z,5.97
2018-03-14T20:09:04.822Z,5.87
2018-03-14T20:11:32.286Z,8.52
2018-03-14T20:13:59.762Z,7.72
2018-03-14T20:16:27.255Z,8.88
2018-03-14T20:18:54.794Z,5.93
2018-03-14T20:21:22.220Z,4.05
2018-03-14T20:23:49.695Z,8.10
2018-03-14T20:26:17.226Z,6.20
2018-03-14T20:28:44.667Z,6.75
2018-03-14T20:31:12.264Z,16.08
2018-03-14T20:33:40.773Z,11.07
2018-03-14T20:36:08.948Z,9.52
2018-03-14T20:38:36.523Z,5.53
2018-03-14T20:41:04.142Z,10.68
2018-03-14T20:43:31.627Z,12.23
2018-03-14T20:45:59.181Z,14.98
2018-03-14T20:48:27.415Z,7.22
2018-03-14T20:50:54.856Z,6.15
2018-03-14T20:53:22.534Z,5.53
2018-03-14T20:55:50.133Z,10.38
2018-03-14T20:58:17.578Z,5.65
2018-03-14T21:00:45.554Z,8.32
2018-03-14T21:03:13.116Z,10.30
2018-03-14T21:05:40.552Z,4.40
2018-03-14T21:08:08.338Z,4.90
2018-03-14T21:10:35.782Z,9.25
2018-03-14T21:13:03.757Z,4.72
2018-03-14T21:15:31.156Z,8.27
2018-03-14T21:17:58.569Z,10.68
2018-03-14T21:20:26.501Z,8.70
2018-03-14T21:22:53.958Z,6.35
2018-03-14T21:25:21.394Z,9.40
2018-03-14T21:27:48.936Z,8.45
2018-03-14T21:30:16.454Z,6.32
2018-03-14T21:32:43.881Z,5.45
2018-03-14T21:35:11.302Z,15.07
2018-03-14T21:37:38.730Z,7.43
2018-03-14T21:40:06.185Z,8.68
2018-03-14T21:42:33.626Z,9.05
2018-03-14T21:45:01.098Z,12.27
2018-03-14T21:47:28.542Z,7.70
2018-03-14T21:49:55.927Z,15.88
2018-03-14T21:52:23.568Z,8.80
2018-03-14T21:54:51.005Z,14.80
2018-03-14T21:57:19.352Z,9.20
2018-03-14T21:59:46.805Z,11.10
2018-03-14T22:02:14.228Z,13.52
2018-03-14T22:04:41.695Z,12.00
2018-03-14T22:07:09.218Z,14.77
2018-03-14T22:09:36.732Z,9.35
2018-03-14T22:12:04.246Z,13.38
2018-03-14T22:14:31.820Z,9.18
2018-03-14T22:16:59.103Z,8.75
2018-03-14T22:19:26.831Z,14.25
2018-03-14T22:21:55.130Z,9.40
2018-03-14T22:24:22.676Z,10.38
2018-03-14T22:26:50.366Z,14.52
2018-03-14T22:29:17.812Z,6.40
2018-03-14T22:31:45.273Z,12.48
2018-03-14T22:34:12.741Z,9.85
2018-03-14T22:36:40.151Z,9.90
2018-03-14T22:39:07.588Z,10.60
2018-03-14T22:41:34.983Z,15.40
2018-03-14T22:44:02.430Z,9.07
2018-03-14T22:46:29.895Z,11.27
2018-03-14T22:48:57.284Z,9.77
2018-03-14T22:51:24.772Z,8.85
2018-03-14T22:53:52.202Z,10.23
2018-03-14T22:56:19.673Z,9.18
2018-03-14T22:58:47.129Z,6.10
2018-03-14T23:01:14.573Z,7.60
2018-03-14T23:03:42.164Z,9.75
2018-03-14T23:06:10.411Z,7.60
2018-03-14T23:08:38.024Z,5.72
2018-03-14T23:11:05.441Z,11.35
2018-03-14T23:13:32.937Z,9.20
2018-03-14T23:16:00.423Z,9.10
2018-03-14T23:18:27.924Z,12.82
2018-03-14T23:20:55.402Z,11.00
2018-03-14T23:23:22.908Z,7.93
2018-03-14T23:25:50.358Z,8.70
2018-03-14T23:28:17.770Z,9.80
2018-03-14T23:30:45.251Z,7.72
2018-03-14T23:33:13.234Z,9.82
2018-03-14T23:35:40.761Z,6.95
2018-03-14T23:38:08.312Z,11.90
2018-03-14T23:40:35.769Z,6.82
2018-03-14T23:43:03.235Z,10.73
2018-03-14T23:45:30.722Z,9.45
2018-03-14T23:47:58.122Z,6.47
2018-03-14T23:50:25.544Z,8.85
2018-03-14T23:52:52.999Z,13.32
2018-03-14T23:55:20.484Z,8.07
2018-03-14T23:57:48.067Z,11.65
